Tim S. Dool — VGPY — position and weather

sailwx.info

Track history (hours):
 
Tides and Currents Weather Stations Pressure Air Temp Water Temp Dewpoint Dewpoint Depression Visibility Wind Speed Wind Dir Waves Ship Positions

Tim S. Dool

Last reported at 2017-Dec-27 08:00 UTC. Time now 2018-Feb-25 22:11 UTC.
Position N 43°48' W 082°30'.
Warning: this ship's position is months out of date.

Length 223 m; draft 6.3 m.

Type: Cargo ship. MMSI: 316001696.

Wind from 250 at 25 knots

Barometer 1033.0 mb
Visibility: greater than 5.4 NM
Dewpoint -24.9 ° C

Date/timePositionNaut miles runAvg speedWind from/ knotsBaromVisibWave heightAir tempDewpointWater temp
2017-Dec-27 08:00N 43°48' W 082°30'10611.0 250 / 251033.0 5.4 -24.9
2017-Dec-26 22:24N 45°28' W 083°20'1912.6
2017-Dec-26 20:53N 45°43' W 083°37'512.6
2017-Dec-26 20:30N 45°46' W 083°42'95 7.0
2017-Dec-26 07:00N 46°54' W 085°18'25712.2 310 / 221023.0 5.4 -15.0
2017-Dec-25 09:55N 46°54' W 091°34'512.8
2017-Dec-25 09:30N 46°51' W 091°41'612.8
2017-Dec-25 09:00N 46°48' W 091°49'612.7
2017-Dec-25 08:30N 46°44' W 091°57'4 7.3
2017-Dec-25 08:00N 46°42' W 092°01'0 0.8
2017-Dec-25 07:30N 46°42' W 092°01'0 0.0
2017-Dec-25 07:01N 46°42' W 092°01'0 0.0
2017-Dec-25 06:30N 46°42' W 092°01'0 0.0
2017-Dec-25 06:00N 46°42' W 092°01'0 0.0
2017-Dec-25 05:30N 46°42' W 092°01'0 0.0
2017-Dec-25 05:00N 46°42' W 092°01'0 0.0
2017-Dec-25 04:30N 46°42' W 092°01'0 0.0
2017-Dec-25 04:00N 46°42' W 092°01'0 0.0
2017-Dec-25 03:30N 46°42' W 092°01'0 0.0
2017-Dec-25 03:00N 46°42' W 092°01'0 0.0
2017-Dec-25 02:30N 46°42' W 092°01'0 0.0
2017-Dec-25 02:00N 46°42' W 092°01'0 0.0
2017-Dec-25 01:30N 46°42' W 092°01'0 0.0
2017-Dec-25 01:00N 46°42' W 092°01'0 0.0
2017-Dec-25 00:30N 46°42' W 092°01'0 0.0
2017-Dec-25 00:00N 46°42' W 092°01'0 0.0
2017-Dec-24 23:30N 46°42' W 092°01'0 0.0
2017-Dec-24 23:00N 46°42' W 092°01'0 0.0
2017-Dec-24 22:30N 46°42' W 092°01'0 0.0
2017-Dec-24 22:00N 46°42' W 092°01'0 0.0
2017-Dec-24 21:30N 46°42' W 092°01'0 0.0
2017-Dec-24 21:00N 46°42' W 092°01'0 0.0
2017-Dec-24 20:30N 46°42' W 092°01'0 0.0
2017-Dec-24 20:00N 46°42' W 092°01'0 0.0
2017-Dec-24 19:30N 46°42' W 092°01'0 0.0
2017-Dec-24 19:00N 46°42' W 092°01'0 0.0
2017-Dec-24 18:30N 46°42' W 092°01'1 1.0
2017-Dec-24 18:00N 46°42' W 092°01'3 6.7
2017-Dec-24 17:30N 46°45' W 091°58'1 1.6
2017-Dec-24 17:00N 46°46' W 091°57'0 0.0
2017-Dec-24 16:30N 46°46' W 091°57'0 0.0
2017-Dec-24 16:00N 46°46' W 091°57'0 0.1
2017-Dec-24 15:30N 46°46' W 091°57'0 0.0
2017-Dec-24 15:00N 46°46' W 091°57'0 0.0
2017-Dec-24 14:30N 46°46' W 091°57'0 0.0
2017-Dec-24 14:00N 46°46' W 091°57'0 0.0
2017-Dec-24 13:30N 46°46' W 091°57'0 0.0
2017-Dec-24 13:00N 46°46' W 091°57'7718.6
2017-Dec-24 13:00N 46°48' W 091°48'713.4 330 2.2 -6.0
2017-Dec-24 12:30N 46°46' W 091°57'0 0.0
2017-Dec-24 12:00N 46°46' W 091°57'0 0.1
2017-Dec-24 11:30N 46°46' W 091°57'0 0.1
2017-Dec-24 11:00N 46°46' W 091°57'0 0.1
2017-Dec-24 10:30N 46°46' W 091°57'0 0.0
2017-Dec-24 10:00N 46°46' W 091°57'0 0.0
2017-Dec-24 09:30N 46°46' W 091°57'0 0.0
2017-Dec-24 09:00N 46°46' W 091°57'0 0.0
2017-Dec-24 08:30N 46°46' W 091°57'0 0.0
2017-Dec-24 08:00N 46°46' W 091°57'0 0.0
2017-Dec-24 07:30N 46°46' W 091°57'0 0.0
2017-Dec-24 07:00N 46°46' W 091°57'0 0.0
2017-Dec-24 06:30N 46°46' W 091°57'0 0.0
2017-Dec-24 06:00N 46°46' W 091°57'0 0.3
2017-Dec-24 05:30N 46°46' W 091°57'5 9.1
2017-Dec-24 05:00N 46°42' W 092°01'2 4.9
2017-Dec-24 04:30N 46°44' W 092°04'2 3.8
2017-Dec-24 04:00N 46°45' W 092°06'0 0.0
2017-Dec-24 03:30N 46°45' W 092°06'0 0.0
2017-Dec-24 03:00N 46°45' W 092°06'0 0.0
2017-Dec-24 02:30N 46°45' W 092°06'0 0.0
2017-Dec-24 02:00N 46°45' W 092°06'0 0.0
2017-Dec-24 01:30N 46°45' W 092°06'0 0.0
2017-Dec-24 01:00N 46°45' W 092°06'0 0.0
2017-Dec-24 00:30N 46°45' W 092°06'1 1.0
2017-Dec-24 00:00N 46°46' W 092°06'2 3.1
2017-Dec-23 23:30N 46°47' W 092°04'3 6.8
2017-Dec-23 23:00N 46°47' W 091°60'0 0.4
2017-Dec-23 22:30N 46°46' W 091°59'0 0.0
2017-Dec-23 22:00N 46°46' W 091°59'0 0.0
2017-Dec-23 21:30N 46°46' W 091°59'0 0.0
2017-Dec-23 21:00N 46°46' W 091°59'0 0.0
2017-Dec-23 20:30N 46°46' W 091°59'0 0.1
2017-Dec-23 20:00N 46°46' W 091°59'0 0.0
2017-Dec-23 19:30N 46°46' W 091°59'0 0.0
2017-Dec-23 19:00N 46°46' W 091°59'0 0.1
2017-Dec-23 18:30N 46°46' W 091°59'0 0.0
2017-Dec-23 18:00N 46°46' W 091°59'0 0.0
2017-Dec-23 17:30N 46°46' W 091°59'0 0.0
2017-Dec-23 17:00N 46°46' W 091°59'0 0.1
2017-Dec-23 16:30N 46°46' W 091°59'0 0.0
2017-Dec-23 16:00N 46°46' W 091°59'0 0.0
2017-Dec-23 15:30N 46°46' W 091°59'0 0.0
2017-Dec-23 15:00N 46°46' W 091°59'0 0.0
2017-Dec-23 14:30N 46°46' W 091°59'0 0.1
2017-Dec-23 14:00N 46°46' W 091°59'0 0.0
2017-Dec-23 13:30N 46°46' W 091°59'0 0.1
2017-Dec-23 13:01N 46°46' W 091°59'0 0.1
2017-Dec-23 12:30N 46°46' W 091°59'0 0.0
2017-Dec-23 12:01N 46°46' W 091°59'0 0.0
2017-Dec-23 11:30N 46°46' W 091°59'0 0.1
2017-Dec-23 11:00N 46°46' W 091°59'0 0.1
2017-Dec-23 10:31N 46°46' W 091°59'0 0.1
2017-Dec-23 10:00N 46°46' W 091°59'0 0.0
2017-Dec-23 09:31N 46°46' W 091°59'0 0.0
2017-Dec-23 09:00N 46°46' W 091°59'0 0.0
2017-Dec-23 08:31N 46°46' W 091°59'0 0.1
2017-Dec-23 08:01N 46°46' W 091°59'0 0.1
2017-Dec-23 07:31N 46°46' W 091°59'0 0.1
2017-Dec-23 07:01N 46°46' W 091°59'0 0.1
2017-Dec-23 06:31N 46°46' W 091°59'0 0.1
2017-Dec-23 06:01N 46°46' W 091°59'0 0.0
2017-Dec-23 05:31N 46°46' W 091°59'0 0.0
2017-Dec-23 05:01N 46°46' W 091°59'0 0.0
2017-Dec-23 04:30N 46°46' W 091°59'0 0.0
2017-Dec-23 04:01N 46°46' W 091°59'0 0.0
2017-Dec-23 03:31N 46°46' W 091°59'0 0.1
2017-Dec-23 03:00N 46°46' W 091°59'0 0.0
2017-Dec-23 02:30N 46°46' W 091°59'0 0.0
2017-Dec-23 02:00N 46°46' W 091°59'0 0.1
2017-Dec-23 01:30N 46°46' W 091°59'0 0.1
2017-Dec-23 01:00N 46°46' W 091°59'0 0.0
2017-Dec-23 00:30N 46°46' W 091°59'0 0.0
2017-Dec-23 00:00N 46°46' W 091°59'0 0.1
2017-Dec-22 23:30N 46°46' W 091°59'0 0.0
2017-Dec-22 23:00N 46°46' W 091°59'0 0.0
2017-Dec-22 22:30N 46°46' W 091°59'0 0.0
2017-Dec-22 22:00N 46°46' W 091°59'0 0.0
2017-Dec-22 21:30N 46°46' W 091°59'0 0.0
2017-Dec-22 21:00N 46°46' W 091°59'0 0.0
2017-Dec-22 20:30N 46°46' W 091°59'0 0.0
2017-Dec-22 20:00N 46°46' W 091°59'0 0.0
2017-Dec-22 19:30N 46°46' W 091°59'0 0.1
2017-Dec-22 19:00N 46°46' W 091°59'0 0.0
2017-Dec-22 18:30N 46°46' W 091°59'0 0.0
2017-Dec-22 18:00N 46°46' W 091°59'0 0.0
2017-Dec-22 17:30N 46°46' W 091°59'0 0.0
2017-Dec-22 17:00N 46°46' W 091°59'0 0.1
2017-Dec-22 16:30N 46°46' W 091°59'0 0.1
2017-Dec-22 16:00N 46°46' W 091°59'0 0.1
2017-Dec-22 15:30N 46°46' W 091°59'0 0.0
2017-Dec-22 15:00N 46°46' W 091°59'0 0.0
2017-Dec-22 14:30N 46°46' W 091°59'0 0.2
2017-Dec-22 14:00N 46°46' W 091°59'0 0.1
2017-Dec-22 13:30N 46°46' W 091°59'0 0.0
2017-Dec-22 13:00N 46°46' W 091°59'0 0.0
2017-Dec-22 12:30N 46°46' W 091°59'0 0.1
2017-Dec-22 12:00N 46°46' W 091°60'0 0.1
2017-Dec-22 11:30N 46°46' W 091°60'0 0.1
2017-Dec-22 11:00N 46°46' W 091°60'0 0.1
2017-Dec-22 10:30N 46°46' W 091°60'0 0.0
2017-Dec-22 10:00N 46°46' W 091°60'0 0.0
2017-Dec-22 09:30N 46°46' W 091°60'0 0.0
2017-Dec-22 09:00N 46°46' W 091°60'0 0.1
2017-Dec-22 08:30N 46°46' W 091°60'0 0.1
2017-Dec-22 08:00N 46°46' W 091°60'0 0.1
2017-Dec-22 07:30N 46°46' W 091°60'0 0.1
2017-Dec-22 07:00N 46°46' W 091°60'0 0.1
2017-Dec-22 06:30N 46°46' W 091°60'0 0.0
2017-Dec-22 06:00N 46°46' W 091°60'0 0.0
2017-Dec-22 05:30N 46°46' W 091°60'0 0.0
2017-Dec-22 05:00N 46°46' W 091°60'0 0.0
2017-Dec-22 04:31N 46°46' W 091°60'0 0.0
2017-Dec-22 04:01N 46°46' W 091°60'0 0.0
2017-Dec-22 03:31N 46°46' W 091°60'0 0.0
2017-Dec-22 03:01N 46°46' W 091°60'0 0.0
2017-Dec-22 02:31N 46°46' W 091°60'0 0.0
2017-Dec-22 02:01N 46°46' W 091°60'0 0.0
2017-Dec-22 01:30N 46°46' W 091°60'0 0.0
2017-Dec-22 01:00N 46°46' W 091°60'0 0.0
2017-Dec-22 00:30N 46°46' W 091°60'0 0.0
2017-Dec-22 00:00N 46°46' W 091°60'0 0.0
2017-Dec-21 23:31N 46°46' W 091°60'0 0.1
2017-Dec-21 23:00N 46°46' W 091°60'0 0.0
2017-Dec-21 22:30N 46°46' W 091°60'0 0.0
2017-Dec-21 22:00N 46°46' W 091°60'0 0.1
2017-Dec-21 21:30N 46°46' W 091°60'0 0.0
2017-Dec-21 21:00N 46°46' W 091°60'0 0.0
2017-Dec-21 20:30N 46°46' W 091°60'0 0.0
2017-Dec-21 20:00N 46°46' W 091°60'0 0.0
2017-Dec-21 19:30N 46°46' W 091°60'0 0.0
2017-Dec-21 19:00N 46°46' W 091°60'0 0.0
2017-Dec-21 18:30N 46°46' W 091°60'0 0.0
2017-Dec-21 18:01N 46°46' W 091°60'0 0.2
2017-Dec-21 17:31N 46°46' W 091°60'0 0.5
2017-Dec-21 17:00N 46°46' W 091°59'4 7.7
2017-Dec-21 16:31N 46°46' W 091°54'713.6
2017-Dec-21 16:00N 46°49' W 091°45'10413.0
2017-Dec-21 08:00N 47°18' W 089°18'15212.7 140 / 101024.0 5.4 -6.0
2017-Dec-20 20:00N 47°00' W 085°36'115 4.0 330 / 121021.0 5.4 -5.0
2017-Dec-19 15:06N 45°39' W 083°37'312.5
2017-Dec-19 14:52N 45°37' W 083°34'412.4
2017-Dec-19 14:30N 45°33' W 083°30'8513.1
2017-Dec-19 08:00N 44°12' W 082°54'140 5.6 220 / 351010.0 5.4 4.0
2017-Dec-18 07:00N 42°06' W 081°30'   210 / 121017.0 5.4 6.0
Track history (hours):
 
Tides and Currents Weather Stations Pressure Air Temp Water Temp Dewpoint Dewpoint Depression Visibility Wind Speed Wind Dir Waves Ship Positions

Tim S. Dool

Last reported at 2017-Dec-27 08:00 UTC. Time now 2018-Feb-25 22:11 UTC.
Position N 43°48' W 082°30'.
Warning: this ship's position is months out of date.

Length 223 m; draft 6.3 m.

Type: Cargo ship. MMSI: 316001696.

Wind from 250 at 25 knots

Barometer 1033.0 mb
Visibility: greater than 5.4 NM
Dewpoint -24.9 ° C

Date/timePositionNaut miles runAvg speedWind from/ knotsBaromVisibWave heightAir tempDewpointWater temp
2017-Dec-27 08:00N 43°48' W 082°30'10611.0 250 / 251033.0 5.4 -24.9
2017-Dec-26 22:24N 45°28' W 083°20'1912.6
2017-Dec-26 20:53N 45°43' W 083°37'512.6
2017-Dec-26 20:30N 45°46' W 083°42'95 7.0
2017-Dec-26 07:00N 46°54' W 085°18'25712.2 310 / 221023.0 5.4 -15.0
2017-Dec-25 09:55N 46°54' W 091°34'512.8
2017-Dec-25 09:30N 46°51' W 091°41'612.8
2017-Dec-25 09:00N 46°48' W 091°49'612.7
2017-Dec-25 08:30N 46°44' W 091°57'4 7.3
2017-Dec-25 08:00N 46°42' W 092°01'0 0.8
2017-Dec-25 07:30N 46°42' W 092°01'0 0.0
2017-Dec-25 07:01N 46°42' W 092°01'0 0.0
2017-Dec-25 06:30N 46°42' W 092°01'0 0.0
2017-Dec-25 06:00N 46°42' W 092°01'0 0.0
2017-Dec-25 05:30N 46°42' W 092°01'0 0.0
2017-Dec-25 05:00N 46°42' W 092°01'0 0.0
2017-Dec-25 04:30N 46°42' W 092°01'0 0.0
2017-Dec-25 04:00N 46°42' W 092°01'0 0.0
2017-Dec-25 03:30N 46°42' W 092°01'0 0.0
2017-Dec-25 03:00N 46°42' W 092°01'0 0.0
2017-Dec-25 02:30N 46°42' W 092°01'0 0.0
2017-Dec-25 02:00N 46°42' W 092°01'0 0.0
2017-Dec-25 01:30N 46°42' W 092°01'0 0.0
2017-Dec-25 01:00N 46°42' W 092°01'0 0.0
2017-Dec-25 00:30N 46°42' W 092°01'0 0.0
2017-Dec-25 00:00N 46°42' W 092°01'0 0.0
2017-Dec-24 23:30N 46°42' W 092°01'0 0.0
2017-Dec-24 23:00N 46°42' W 092°01'0 0.0
2017-Dec-24 22:30N 46°42' W 092°01'0 0.0
2017-Dec-24 22:00N 46°42' W 092°01'0 0.0
2017-Dec-24 21:30N 46°42' W 092°01'0 0.0
2017-Dec-24 21:00N 46°42' W 092°01'0 0.0
2017-Dec-24 20:30N 46°42' W 092°01'0 0.0
2017-Dec-24 20:00N 46°42' W 092°01'0 0.0
2017-Dec-24 19:30N 46°42' W 092°01'0 0.0
2017-Dec-24 19:00N 46°42' W 092°01'0 0.0
2017-Dec-24 18:30N 46°42' W 092°01'1 1.0
2017-Dec-24 18:00N 46°42' W 092°01'3 6.7
2017-Dec-24 17:30N 46°45' W 091°58'1 1.6
2017-Dec-24 17:00N 46°46' W 091°57'0 0.0
2017-Dec-24 16:30N 46°46' W 091°57'0 0.0
2017-Dec-24 16:00N 46°46' W 091°57'0 0.1
2017-Dec-24 15:30N 46°46' W 091°57'0 0.0
2017-Dec-24 15:00N 46°46' W 091°57'0 0.0
2017-Dec-24 14:30N 46°46' W 091°57'0 0.0
2017-Dec-24 14:00N 46°46' W 091°57'0 0.0
2017-Dec-24 13:30N 46°46' W 091°57'0 0.0
2017-Dec-24 13:00N 46°46' W 091°57'7718.6
2017-Dec-24 13:00N 46°48' W 091°48'713.4 330 2.2 -6.0
2017-Dec-24 12:30N 46°46' W 091°57'0 0.0
2017-Dec-24 12:00N 46°46' W 091°57'0 0.1
2017-Dec-24 11:30N 46°46' W 091°57'0 0.1
2017-Dec-24 11:00N 46°46' W 091°57'0 0.1
2017-Dec-24 10:30N 46°46' W 091°57'0 0.0
2017-Dec-24 10:00N 46°46' W 091°57'0 0.0
2017-Dec-24 09:30N 46°46' W 091°57'0 0.0
2017-Dec-24 09:00N 46°46' W 091°57'0 0.0
2017-Dec-24 08:30N 46°46' W 091°57'0 0.0
2017-Dec-24 08:00N 46°46' W 091°57'0 0.0
2017-Dec-24 07:30N 46°46' W 091°57'0 0.0
2017-Dec-24 07:00N 46°46' W 091°57'0 0.0
2017-Dec-24 06:30N 46°46' W 091°57'0 0.0
2017-Dec-24 06:00N 46°46' W 091°57'0 0.3
2017-Dec-24 05:30N 46°46' W 091°57'5 9.1
2017-Dec-24 05:00N 46°42' W 092°01'2 4.9
2017-Dec-24 04:30N 46°44' W 092°04'2 3.8
2017-Dec-24 04:00N 46°45' W 092°06'0 0.0
2017-Dec-24 03:30N 46°45' W 092°06'0 0.0
2017-Dec-24 03:00N 46°45' W 092°06'0 0.0
2017-Dec-24 02:30N 46°45' W 092°06'0 0.0
2017-Dec-24 02:00N 46°45' W 092°06'0 0.0
2017-Dec-24 01:30N 46°45' W 092°06'0 0.0
2017-Dec-24 01:00N 46°45' W 092°06'0 0.0
2017-Dec-24 00:30N 46°45' W 092°06'1 1.0
2017-Dec-24 00:00N 46°46' W 092°06'2 3.1
2017-Dec-23 23:30N 46°47' W 092°04'3 6.8
2017-Dec-23 23:00N 46°47' W 091°60'0 0.4
2017-Dec-23 22:30N 46°46' W 091°59'0 0.0
2017-Dec-23 22:00N 46°46' W 091°59'0 0.0
2017-Dec-23 21:30N 46°46' W 091°59'0 0.0
2017-Dec-23 21:00N 46°46' W 091°59'0 0.0
2017-Dec-23 20:30N 46°46' W 091°59'0 0.1
2017-Dec-23 20:00N 46°46' W 091°59'0 0.0
2017-Dec-23 19:30N 46°46' W 091°59'0 0.0
2017-Dec-23 19:00N 46°46' W 091°59'0 0.1
2017-Dec-23 18:30N 46°46' W 091°59'0 0.0
2017-Dec-23 18:00N 46°46' W 091°59'0 0.0
2017-Dec-23 17:30N 46°46' W 091°59'0 0.0
2017-Dec-23 17:00N 46°46' W 091°59'0 0.1
2017-Dec-23 16:30N 46°46' W 091°59'0 0.0
2017-Dec-23 16:00N 46°46' W 091°59'0 0.0
2017-Dec-23 15:30N 46°46' W 091°59'0 0.0
2017-Dec-23 15:00N 46°46' W 091°59'0 0.0
2017-Dec-23 14:30N 46°46' W 091°59'0 0.1
2017-Dec-23 14:00N 46°46' W 091°59'0 0.0
2017-Dec-23 13:30N 46°46' W 091°59'0 0.1
2017-Dec-23 13:01N 46°46' W 091°59'0 0.1
2017-Dec-23 12:30N 46°46' W 091°59'0 0.0
2017-Dec-23 12:01N 46°46' W 091°59'0 0.0
2017-Dec-23 11:30N 46°46' W 091°59'0 0.1
2017-Dec-23 11:00N 46°46' W 091°59'0 0.1
2017-Dec-23 10:31N 46°46' W 091°59'0 0.1
2017-Dec-23 10:00N 46°46' W 091°59'0 0.0
2017-Dec-23 09:31N 46°46' W 091°59'0 0.0
2017-Dec-23 09:00N 46°46' W 091°59'0 0.0
2017-Dec-23 08:31N 46°46' W 091°59'0 0.1
2017-Dec-23 08:01N 46°46' W 091°59'0 0.1
2017-Dec-23 07:31N 46°46' W 091°59'0 0.1
2017-Dec-23 07:01N 46°46' W 091°59'0 0.1
2017-Dec-23 06:31N 46°46' W 091°59'0 0.1
2017-Dec-23 06:01N 46°46' W 091°59'0 0.0
2017-Dec-23 05:31N 46°46' W 091°59'0 0.0
2017-Dec-23 05:01N 46°46' W 091°59'0 0.0
2017-Dec-23 04:30N 46°46' W 091°59'0 0.0
2017-Dec-23 04:01N 46°46' W 091°59'0 0.0
2017-Dec-23 03:31N 46°46' W 091°59'0 0.1
2017-Dec-23 03:00N 46°46' W 091°59'0 0.0
2017-Dec-23 02:30N 46°46' W 091°59'0 0.0
2017-Dec-23 02:00N 46°46' W 091°59'0 0.1
2017-Dec-23 01:30N 46°46' W 091°59'0 0.1
2017-Dec-23 01:00N 46°46' W 091°59'0 0.0
2017-Dec-23 00:30N 46°46' W 091°59'0 0.0
2017-Dec-23 00:00N 46°46' W 091°59'0 0.1
2017-Dec-22 23:30N 46°46' W 091°59'0 0.0
2017-Dec-22 23:00N 46°46' W 091°59'0 0.0
2017-Dec-22 22:30N 46°46' W 091°59'0 0.0
2017-Dec-22 22:00N 46°46' W 091°59'0 0.0
2017-Dec-22 21:30N 46°46' W 091°59'0 0.0
2017-Dec-22 21:00N 46°46' W 091°59'0 0.0
2017-Dec-22 20:30N 46°46' W 091°59'0 0.0
2017-Dec-22 20:00N 46°46' W 091°59'0 0.0
2017-Dec-22 19:30N 46°46' W 091°59'0 0.1
2017-Dec-22 19:00N 46°46' W 091°59'0 0.0
2017-Dec-22 18:30N 46°46' W 091°59'0 0.0
2017-Dec-22 18:00N 46°46' W 091°59'0 0.0
2017-Dec-22 17:30N 46°46' W 091°59'0 0.0
2017-Dec-22 17:00N 46°46' W 091°59'0 0.1
2017-Dec-22 16:30N 46°46' W 091°59'0 0.1
2017-Dec-22 16:00N 46°46' W 091°59'0 0.1
2017-Dec-22 15:30N 46°46' W 091°59'0 0.0
2017-Dec-22 15:00N 46°46' W 091°59'0 0.0
2017-Dec-22 14:30N 46°46' W 091°59'0 0.2
2017-Dec-22 14:00N 46°46' W 091°59'0 0.1
2017-Dec-22 13:30N 46°46' W 091°59'0 0.0
2017-Dec-22 13:00N 46°46' W 091°59'0 0.0
2017-Dec-22 12:30N 46°46' W 091°59'0 0.1
2017-Dec-22 12:00N 46°46' W 091°60'0 0.1
2017-Dec-22 11:30N 46°46' W 091°60'0 0.1
2017-Dec-22 11:00N 46°46' W 091°60'0 0.1
2017-Dec-22 10:30N 46°46' W 091°60'0 0.0
2017-Dec-22 10:00N 46°46' W 091°60'0 0.0
2017-Dec-22 09:30N 46°46' W 091°60'0 0.0
2017-Dec-22 09:00N 46°46' W 091°60'0 0.1
2017-Dec-22 08:30N 46°46' W 091°60'0 0.1
2017-Dec-22 08:00N 46°46' W 091°60'0 0.1
2017-Dec-22 07:30N 46°46' W 091°60'0 0.1
2017-Dec-22 07:00N 46°46' W 091°60'0 0.1
2017-Dec-22 06:30N 46°46' W 091°60'0 0.0
2017-Dec-22 06:00N 46°46' W 091°60'0 0.0
2017-Dec-22 05:30N 46°46' W 091°60'0 0.0
2017-Dec-22 05:00N 46°46' W 091°60'0 0.0
2017-Dec-22 04:31N 46°46' W 091°60'0 0.0
2017-Dec-22 04:01N 46°46' W 091°60'0 0.0
2017-Dec-22 03:31N 46°46' W 091°60'0 0.0
2017-Dec-22 03:01N 46°46' W 091°60'0 0.0
2017-Dec-22 02:31N 46°46' W 091°60'0 0.0
2017-Dec-22 02:01N 46°46' W 091°60'0 0.0
2017-Dec-22 01:30N 46°46' W 091°60'0 0.0
2017-Dec-22 01:00N 46°46' W 091°60'0 0.0
2017-Dec-22 00:30N 46°46' W 091°60'0 0.0
2017-Dec-22 00:00N 46°46' W 091°60'0 0.0
2017-Dec-21 23:31N 46°46' W 091°60'0 0.1
2017-Dec-21 23:00N 46°46' W 091°60'0 0.0
2017-Dec-21 22:30N 46°46' W 091°60'0 0.0
2017-Dec-21 22:00N 46°46' W 091°60'0 0.1
2017-Dec-21 21:30N 46°46' W 091°60'0 0.0
2017-Dec-21 21:00N 46°46' W 091°60'0 0.0
2017-Dec-21 20:30N 46°46' W 091°60'0 0.0
2017-Dec-21 20:00N 46°46' W 091°60'0 0.0
2017-Dec-21 19:30N 46°46' W 091°60'0 0.0
2017-Dec-21 19:00N 46°46' W 091°60'0 0.0
2017-Dec-21 18:30N 46°46' W 091°60'0 0.0
2017-Dec-21 18:01N 46°46' W 091°60'0 0.2
2017-Dec-21 17:31N 46°46' W 091°60'0 0.5
2017-Dec-21 17:00N 46°46' W 091°59'4 7.7
2017-Dec-21 16:31N 46°46' W 091°54'713.6
2017-Dec-21 16:00N 46°49' W 091°45'10413.0
2017-Dec-21 08:00N 47°18' W 089°18'15212.7 140 / 101024.0 5.4 -6.0
2017-Dec-20 20:00N 47°00' W 085°36'115 4.0 330 / 121021.0 5.4 -5.0
2017-Dec-19 15:06N 45°39' W 083°37'312.5
2017-Dec-19 14:52N 45°37' W 083°34'412.4
2017-Dec-19 14:30N 45°33' W 083°30'8513.1
2017-Dec-19 08:00N 44°12' W 082°54'140 5.6 220 / 351010.0 5.4 4.0
2017-Dec-18 07:00N 42°06' W 081°30'   210 / 121017.0 5.4 6.0

Dump ship's entire track history